Terminal Aerodrome Forecast
Issued by NWS

Home | Current Version | Previous Version | Graphics & Text | Print | Product List | Glossary On
Versions: 1 2 3 4 5 6 7 8 9 10 11 12 13 14 15 16 17 18
000
FTUS43 KUNR 100700 AAB
TAFGCC
TAF AMD
KGCC 100754Z 1008/1106 17013KT P6SM SCT080
      TEMPO 1008/1012 -TSRA BKN060CB
     FM101600 34014KT P6SM BKN100=

USA.gov is the U.S. government's official web portal to all federal, state and local government web resources and services.